createdAt,value
2022-10-28T00:02:17.678Z,6.74
2022-10-28T00:04:44.243Z,6.80
2022-10-28T00:07:10.525Z,6.87
2022-10-28T00:09:36.782Z,6.84
2022-10-28T00:12:03.525Z,6.84
2022-10-28T00:14:29.847Z,6.84
2022-10-28T00:16:56.089Z,6.86
2022-10-28T00:19:22.622Z,6.73
2022-10-28T00:21:48.876Z,6.88
2022-10-28T00:24:15.204Z,6.77
2022-10-28T00:26:42.864Z,6.83
2022-10-28T00:29:17.405Z,6.70
2022-10-28T00:31:44.408Z,6.81
2022-10-28T00:34:16.533Z,6.86
2022-10-28T00:36:44.758Z,6.83
2022-10-28T00:39:13.638Z,6.81
2022-10-28T00:41:42.832Z,6.81
2022-10-28T00:44:37.300Z,6.80
2022-10-28T00:47:04.415Z,6.79
2022-10-28T00:49:32.700Z,6.77
2022-10-28T00:52:05.841Z,6.82
2022-10-28T00:54:32.909Z,6.64
2022-10-28T00:57:01.332Z,6.76
2022-10-28T00:59:34.057Z,6.76
2022-10-28T01:02:01.203Z,6.71
2022-10-28T01:04:28.120Z,6.68
2022-10-28T01:06:56.150Z,6.69
2022-10-28T01:09:22.794Z,6.59
2022-10-28T01:12:00.054Z,6.60
2022-10-28T01:14:49.495Z,6.63
2022-10-28T01:17:34.464Z,6.67
2022-10-28T01:20:25.646Z,6.68
2022-10-28T01:23:13.208Z,6.71
2022-10-28T01:25:51.617Z,6.73
2022-10-28T01:28:29.976Z,6.73
2022-10-28T01:31:20.985Z,6.72
2022-10-28T01:34:01.732Z,6.75
2022-10-28T01:36:51.736Z,6.78
2022-10-28T01:39:36.115Z,6.82
2022-10-28T01:42:18.646Z,6.85
2022-10-28T01:45:20.269Z,6.79
2022-10-28T01:48:08.522Z,6.80
2022-10-28T01:50:41.547Z,6.89
2022-10-28T01:53:12.149Z,6.82
2022-10-28T01:55:40.433Z,6.82
2022-10-28T01:58:08.768Z,6.87
2022-10-28T02:00:36.174Z,6.83
2022-10-28T02:03:03.371Z,6.90
2022-10-28T02:05:49.073Z,6.74
2022-10-28T02:08:18.769Z,6.80
2022-10-28T02:11:01.452Z,6.73
2022-10-28T02:13:34.157Z,6.71
2022-10-28T02:16:11.514Z,6.50
2022-10-28T02:18:47.363Z,6.62
2022-10-28T02:21:36.936Z,6.55
2022-10-28T02:24:20.083Z,6.55
2022-10-28T02:26:52.080Z,6.56
2022-10-28T02:29:56.106Z,6.60
2022-10-28T02:32:25.493Z,6.57
2022-10-28T02:34:54.360Z,6.63
2022-10-28T02:37:40.603Z,6.59
2022-10-28T02:40:11.794Z,6.69
2022-10-28T02:42:43.023Z,6.61
2022-10-28T02:45:15.720Z,6.68
2022-10-28T02:47:46.944Z,6.74
2022-10-28T02:50:17.427Z,6.61
2022-10-28T02:52:46.366Z,6.88
2022-10-28T02:55:13.156Z,6.82
2022-10-28T02:57:42.554Z,6.98
2022-10-28T03:00:12.054Z,7.01
2022-10-28T03:02:38.319Z,6.99
2022-10-28T03:05:06.442Z,7.06
2022-10-28T03:07:32.815Z,6.97
2022-10-28T03:09:59.068Z,7.10
2022-10-28T03:12:25.634Z,7.06
2022-10-28T03:14:51.886Z,7.16
2022-10-28T03:17:18.241Z,7.19
2022-10-28T03:19:44.794Z,7.17
2022-10-28T03:22:11.083Z,7.24
2022-10-28T03:24:37.353Z,7.26
2022-10-28T03:27:03.946Z,7.32
2022-10-28T03:29:30.210Z,7.27
2022-10-28T03:31:56.481Z,7.28
2022-10-28T03:34:23.060Z,7.41
2022-10-28T03:36:49.318Z,7.34
2022-10-28T03:39:15.801Z,7.45
2022-10-28T03:41:42.344Z,7.47
2022-10-28T03:44:08.625Z,7.51
2022-10-28T03:46:36.100Z,7.54
2022-10-28T03:49:03.671Z,7.60
2022-10-28T03:51:30.101Z,7.61
2022-10-28T03:53:56.375Z,7.54
2022-10-28T03:56:22.950Z,7.61
2022-10-28T03:58:50.161Z,7.69
2022-10-28T04:01:16.649Z,7.71
2022-10-28T04:03:43.313Z,7.71
2022-10-28T04:06:12.365Z,7.61
2022-10-28T04:08:38.797Z,7.70
2022-10-28T04:11:05.494Z,7.60
2022-10-28T04:13:31.783Z,7.70
2022-10-28T04:15:58.068Z,7.62
2022-10-28T04:18:24.678Z,7.61
2022-10-28T04:20:52.035Z,7.67
2022-10-28T04:23:18.463Z,7.68
2022-10-28T04:25:45.131Z,7.72
2022-10-28T04:28:11.389Z,7.69
2022-10-28T04:30:37.718Z,7.67
2022-10-28T04:33:04.336Z,7.61
2022-10-28T04:35:30.611Z,7.72
2022-10-28T04:37:56.948Z,7.62
2022-10-28T04:40:23.535Z,7.73
2022-10-28T04:42:49.771Z,7.65
2022-10-28T04:45:16.173Z,7.76
2022-10-28T04:47:42.780Z,7.63
2022-10-28T04:50:09.158Z,6.88
2022-10-28T04:52:35.447Z,7.75
2022-10-28T04:55:01.988Z,7.79
2022-10-28T04:57:28.264Z,7.78
2022-10-28T04:59:54.536Z,7.78
2022-10-28T05:02:22.965Z,7.77
2022-10-28T05:04:49.451Z,7.76
2022-10-28T05:07:17.633Z,7.77
2022-10-28T05:09:47.547Z,7.78
2022-10-28T05:12:13.773Z,7.84
2022-10-28T05:14:40.029Z,7.85
2022-10-28T05:17:07.931Z,7.81
2022-10-28T05:19:35.423Z,7.79
2022-10-28T05:22:02.165Z,7.66
2022-10-28T05:24:28.791Z,7.91
2022-10-28T05:26:55.351Z,7.90
2022-10-28T05:29:21.700Z,7.94
2022-10-28T05:31:48.201Z,7.89
2022-10-28T05:34:14.468Z,7.92
2022-10-28T05:36:40.890Z,7.91
2022-10-28T05:39:07.644Z,7.93
2022-10-28T05:41:38.471Z,7.94
2022-10-28T05:44:05.354Z,8.01
2022-10-28T05:46:32.083Z,8.01
2022-10-28T05:48:58.378Z,8.05
2022-10-28T05:51:24.724Z,8.02
2022-10-28T05:53:51.447Z,8.12
2022-10-28T05:56:19.013Z,7.98
2022-10-28T05:58:45.502Z,8.15
2022-10-28T06:01:12.188Z,8.13
2022-10-28T06:03:44.681Z,8.07
2022-10-28T06:06:10.974Z,8.16
2022-10-28T06:08:37.268Z,8.19
2022-10-28T06:11:02.361Z,8.14
2022-10-28T06:13:43.814Z,8.23
2022-10-28T06:17:23.274Z,8.04
2022-10-28T06:20:01.076Z,8.32
2022-10-28T06:22:34.807Z,8.34
2022-10-28T06:25:08.701Z,8.40
2022-10-28T06:28:10.299Z,8.38
2022-10-28T06:30:39.504Z,8.38
2022-10-28T06:33:07.760Z,8.55
2022-10-28T06:35:38.153Z,8.44
2022-10-28T06:38:08.492Z,8.47
2022-10-28T06:40:36.316Z,8.50
2022-10-28T06:43:04.574Z,8.62
2022-10-28T06:45:32.340Z,8.59
2022-10-28T06:48:03.688Z,8.72
2022-10-28T06:50:30.915Z,8.74
2022-10-28T06:53:00.630Z,8.74
2022-10-28T06:55:28.057Z,8.86
2022-10-28T06:57:55.139Z,8.87
2022-10-28T07:00:21.914Z,8.98
2022-10-28T07:02:59.884Z,8.95
2022-10-28T07:05:27.256Z,9.03
2022-10-28T07:07:54.084Z,9.19
2022-10-28T07:10:20.556Z,9.23
2022-10-28T07:12:47.065Z,9.32
2022-10-28T07:15:13.657Z,9.43
2022-10-28T07:17:40.583Z,9.50
2022-10-28T07:20:07.569Z,9.53
2022-10-28T07:22:34.181Z,9.71
2022-10-28T07:25:00.426Z,9.66
2022-10-28T07:27:26.701Z,9.63
2022-10-28T07:29:53.234Z,9.68
2022-10-28T07:32:19.511Z,9.78
2022-10-28T07:34:45.785Z,9.87
2022-10-28T07:37:12.844Z,9.86
2022-10-28T07:39:41.365Z,9.95
2022-10-28T07:42:41.899Z,9.66
2022-10-28T07:47:53.163Z,9.95
2022-10-28T07:50:19.905Z,10.08
2022-10-28T07:52:46.221Z,9.44
2022-10-28T07:55:13.066Z,10.16
2022-10-28T07:57:42.681Z,10.15
2022-10-28T08:00:09.592Z,10.21
2022-10-28T08:02:45.961Z,10.05
2022-10-28T08:05:14.250Z,10.12
2022-10-28T08:07:40.494Z,10.33
2022-10-28T08:10:07.286Z,10.35
2022-10-28T08:12:34.669Z,10.45
2022-10-28T08:15:02.645Z,10.49
2022-10-28T08:17:29.322Z,10.56
2022-10-28T08:19:55.851Z,10.71
2022-10-28T08:22:22.089Z,10.77
2022-10-28T08:24:48.886Z,10.81
2022-10-28T08:27:15.398Z,10.84
2022-10-28T08:29:44.071Z,10.92
2022-10-28T08:32:10.771Z,11.03
2022-10-28T08:34:42.429Z,11.11
2022-10-28T08:37:09.996Z,11.19
2022-10-28T08:39:36.567Z,11.21
2022-10-28T08:42:41.447Z,11.33
2022-10-28T08:45:23.223Z,11.53
2022-10-28T08:47:50.351Z,11.56
2022-10-28T08:50:18.908Z,11.74
2022-10-28T08:52:54.152Z,11.79
2022-10-28T08:55:33.408Z,11.82
2022-10-28T08:58:08.538Z,11.88
2022-10-28T09:00:37.435Z,11.87
2022-10-28T09:03:13.222Z,11.84
2022-10-28T09:05:41.688Z,12.23
2022-10-28T09:08:21.582Z,12.39
2022-10-28T09:10:56.012Z,12.68
2022-10-28T09:13:28.642Z,12.81
2022-10-28T09:16:03.475Z,12.90
2022-10-28T09:18:50.718Z,12.79
2022-10-28T09:21:30.438Z,12.98
2022-10-28T09:23:58.506Z,13.05
2022-10-28T09:26:40.769Z,13.22
2022-10-28T09:29:45.724Z,13.38
2022-10-28T09:32:21.870Z,13.50
2022-10-28T09:34:55.065Z,13.45
2022-10-28T09:37:25.092Z,13.37
2022-10-28T09:39:54.890Z,13.45
2022-10-28T09:42:27.331Z,13.39
2022-10-28T09:44:58.579Z,13.23
2022-10-28T09:47:32.462Z,13.35
2022-10-28T09:50:02.172Z,13.31
2022-10-28T09:52:35.419Z,13.25
2022-10-28T09:55:15.703Z,13.36
2022-10-28T09:57:43.776Z,13.46
2022-10-28T10:00:12.891Z,13.56
2022-10-28T10:02:40.385Z,13.78
2022-10-28T10:05:16.869Z,13.66
2022-10-28T10:07:53.619Z,13.71
2022-10-28T10:10:24.764Z,13.85
2022-10-28T10:12:52.804Z,13.72
2022-10-28T10:15:36.728Z,13.83
2022-10-28T10:18:06.112Z,13.90
2022-10-28T10:20:51.566Z,14.06
2022-10-28T10:23:32.045Z,14.02
2022-10-28T10:26:06.810Z,14.13
2022-10-28T10:28:39.323Z,14.26
2022-10-28T10:31:07.799Z,14.25
2022-10-28T10:33:39.392Z,14.24
2022-10-28T10:36:17.646Z,14.10
2022-10-28T10:38:55.110Z,14.22
2022-10-28T10:41:44.813Z,14.21
2022-10-28T10:44:23.364Z,14.24
2022-10-28T10:47:13.392Z,14.22
2022-10-28T10:49:39.890Z,14.31
2022-10-28T10:52:14.214Z,14.32
2022-10-28T10:54:40.709Z,14.29
2022-10-28T10:57:21.351Z,14.25
2022-10-28T10:59:49.966Z,14.22
2022-10-28T11:02:23.076Z,14.36
2022-10-28T11:04:51.984Z,14.36
2022-10-28T11:07:18.889Z,14.37
2022-10-28T11:09:47.823Z,14.44
2022-10-28T11:12:36.844Z,14.39
2022-10-28T11:15:15.599Z,14.34
2022-10-28T11:17:57.554Z,14.30
2022-10-28T11:20:55.237Z,14.30
2022-10-28T11:23:34.911Z,14.18
2022-10-28T11:26:05.923Z,14.16
2022-10-28T11:28:36.573Z,14.14
2022-10-28T11:31:14.401Z,14.14
2022-10-28T11:33:53.058Z,14.11
2022-10-28T11:36:28.839Z,14.04
2022-10-28T11:39:21.295Z,14.02
2022-10-28T11:42:21.822Z,14.04
2022-10-28T11:45:06.337Z,14.01
2022-10-28T11:47:48.220Z,14.02
2022-10-28T11:50:17.171Z,14.02
2022-10-28T11:52:53.344Z,13.98
2022-10-28T11:55:36.167Z,14.00
2022-10-28T11:58:05.850Z,13.98
2022-10-28T12:00:53.906Z,14.00
2022-10-28T12:03:20.423Z,14.00
2022-10-28T12:06:18.300Z,13.94
2022-10-28T12:08:48.761Z,13.92
2022-10-28T12:11:24.069Z,13.81
2022-10-28T12:13:58.519Z,13.78
2022-10-28T12:16:33.292Z,13.82
2022-10-28T12:19:03.891Z,13.84
2022-10-28T12:24:03.977Z,13.95
2022-10-28T12:26:40.599Z,14.06
2022-10-28T12:29:33.679Z,14.01
2022-10-28T12:32:17.821Z,14.00
2022-10-28T12:34:52.595Z,13.98
2022-10-28T12:37:48.702Z,13.99
2022-10-28T12:40:21.346Z,14.01
2022-10-28T12:42:55.347Z,14.08
2022-10-28T12:45:22.963Z,14.07
2022-10-28T12:48:00.691Z,14.12
2022-10-28T12:50:50.822Z,14.21
2022-10-28T12:54:00.416Z,14.26
2022-10-28T12:56:31.899Z,14.25
2022-10-28T13:01:36.420Z,14.13
2022-10-28T13:04:02.923Z,14.28
2022-10-28T13:06:51.189Z,14.31
2022-10-28T13:09:25.265Z,14.29
2022-10-28T13:12:47.087Z,14.23
2022-10-28T13:15:41.694Z,14.24
2022-10-28T13:18:35.881Z,14.33
2022-10-28T13:21:05.259Z,14.38
2022-10-28T13:23:59.355Z,14.39
2022-10-28T13:26:36.103Z,14.41
2022-10-28T13:29:07.135Z,14.41
2022-10-28T13:31:41.996Z,14.28
2022-10-28T13:34:09.124Z,14.36
2022-10-28T13:36:38.668Z,14.27
2022-10-28T13:39:21.590Z,14.27
2022-10-28T13:41:49.029Z,14.13
2022-10-28T13:44:25.943Z,14.24
2022-10-28T13:47:03.616Z,14.24
2022-10-28T13:49:31.400Z,14.24
2022-10-28T13:52:02.481Z,14.23
2022-10-28T13:54:36.806Z,14.19
2022-10-28T13:57:07.657Z,14.17
2022-10-28T13:59:50.961Z,14.15
2022-10-28T14:02:36.612Z,14.01
2022-10-28T14:05:07.246Z,14.12
2022-10-28T14:07:36.035Z,14.07
2022-10-28T14:10:31.454Z,14.01
2022-10-28T14:13:03.619Z,13.86
2022-10-28T14:15:33.157Z,13.82
2022-10-28T14:18:43.136Z,13.79
2022-10-28T14:21:01.661Z,13.77
2022-10-28T14:23:28.095Z,13.68
2022-10-28T14:25:54.645Z,13.63
2022-10-28T14:28:27.067Z,13.57
2022-10-28T14:31:11.727Z,13.55
2022-10-28T14:33:44.214Z,13.50
2022-10-28T14:36:19.538Z,13.43
2022-10-28T14:38:58.305Z,13.39
2022-10-28T14:41:46.031Z,13.39
2022-10-28T14:44:30.979Z,13.38
2022-10-28T14:47:06.731Z,13.34
2022-10-28T14:49:35.052Z,13.32
2022-10-28T14:52:08.741Z,13.30
2022-10-28T14:54:45.369Z,13.17
2022-10-28T14:57:11.661Z,13.30
2022-10-28T14:59:40.462Z,13.25
2022-10-28T15:02:16.618Z,13.21
2022-10-28T15:04:45.296Z,13.22
2022-10-28T15:07:19.399Z,13.21
2022-10-28T15:09:50.546Z,13.16
2022-10-28T15:12:17.693Z,13.17
2022-10-28T15:14:55.799Z,13.17
2022-10-28T15:17:39.336Z,12.34
2022-10-28T15:20:15.550Z,13.13
2022-10-28T15:22:44.411Z,12.99
2022-10-28T15:25:13.363Z,13.08
2022-10-28T15:27:41.257Z,13.07
2022-10-28T15:30:15.230Z,13.05
2022-10-28T15:32:41.823Z,13.01
2022-10-28T15:35:26.779Z,12.99
2022-10-28T15:37:54.670Z,12.99
2022-10-28T15:40:32.395Z,13.00
2022-10-28T15:43:00.725Z,13.01
2022-10-28T15:45:29.853Z,12.99
2022-10-28T15:47:57.531Z,12.99
2022-10-28T15:50:30.819Z,13.00
2022-10-28T15:53:09.587Z,13.00
2022-10-28T15:58:41.128Z,12.97
2022-10-28T16:01:26.593Z,12.93
2022-10-28T16:03:53.261Z,12.91
2022-10-28T16:06:32.100Z,12.90
2022-10-28T16:09:03.707Z,12.75
2022-10-28T16:11:30.903Z,12.84
2022-10-28T16:13:58.142Z,12.83
2022-10-28T16:16:27.336Z,12.72
2022-10-28T16:19:08.148Z,12.81
2022-10-28T16:21:35.835Z,12.68
2022-10-28T16:24:02.853Z,12.80
2022-10-28T16:26:31.174Z,12.66
2022-10-28T16:28:57.878Z,12.76
2022-10-28T16:31:28.367Z,12.74
2022-10-28T16:33:54.626Z,12.74
2022-10-28T16:36:21.225Z,12.74
2022-10-28T16:38:47.483Z,12.73
2022-10-28T16:41:16.241Z,12.73
2022-10-28T16:43:43.160Z,12.61
2022-10-28T16:46:11.814Z,12.61
2022-10-28T16:48:38.103Z,12.71
2022-10-28T16:51:10.618Z,12.70
2022-10-28T16:53:38.786Z,12.70
2022-10-28T16:56:09.820Z,12.62
2022-10-28T16:58:42.250Z,12.67
2022-10-28T17:01:12.028Z,12.67
2022-10-28T17:03:38.392Z,12.68
2022-10-28T17:06:04.752Z,12.68
2022-10-28T17:09:00.692Z,12.68
2022-10-28T17:11:17.659Z,12.67
2022-10-28T17:13:44.245Z,12.65
2022-10-28T17:16:10.711Z,12.55
2022-10-28T17:18:36.950Z,12.64
2022-10-28T17:21:03.558Z,12.58
2022-10-28T17:23:30.041Z,12.60
2022-10-28T17:26:00.217Z,12.50
2022-10-28T17:28:26.882Z,12.61
2022-10-28T17:30:53.646Z,12.60
2022-10-28T17:33:20.066Z,12.58
2022-10-28T17:35:46.696Z,12.47
2022-10-28T17:38:12.944Z,12.58
2022-10-28T17:40:39.400Z,12.57
2022-10-28T17:43:05.966Z,12.54
2022-10-28T17:45:32.223Z,12.52
2022-10-28T17:47:59.525Z,12.48
2022-10-28T17:50:26.074Z,12.48
2022-10-28T17:52:53.259Z,12.48
2022-10-28T17:55:19.754Z,12.47
2022-10-28T17:57:46.342Z,12.46
2022-10-28T18:00:13.211Z,12.45
2022-10-28T18:02:40.436Z,12.44
2022-10-28T18:05:07.263Z,12.42
2022-10-28T18:07:33.510Z,12.45
2022-10-28T18:10:00.033Z,12.42
2022-10-28T18:12:26.368Z,12.43
2022-10-28T18:14:52.649Z,12.42
2022-10-28T18:17:19.215Z,12.36
2022-10-28T18:19:45.767Z,12.40
2022-10-28T18:22:12.088Z,12.39
2022-10-28T18:24:38.709Z,12.37
2022-10-28T18:27:04.949Z,12.36
2022-10-28T18:29:31.216Z,12.36
2022-10-28T18:31:57.842Z,12.37
2022-10-28T18:34:24.255Z,12.36
2022-10-28T18:36:50.630Z,12.35
2022-10-28T18:39:17.240Z,12.32
2022-10-28T18:41:43.810Z,12.29
2022-10-28T18:44:14.217Z,12.22
2022-10-28T18:46:40.972Z,12.28
2022-10-28T18:49:07.238Z,12.21
2022-10-28T18:51:33.761Z,12.28
2022-10-28T18:54:00.283Z,12.23
2022-10-28T18:56:29.332Z,12.20
2022-10-28T18:58:56.467Z,12.20
2022-10-28T19:01:28.131Z,12.17
2022-10-28T19:03:56.206Z,12.18
2022-10-28T19:06:23.828Z,12.17
2022-10-28T19:08:54.860Z,12.15
2022-10-28T19:11:22.333Z,12.15
2022-10-28T19:13:49.192Z,12.08
2022-10-28T19:16:15.479Z,12.17
2022-10-28T19:18:41.756Z,12.17
2022-10-28T19:21:17.169Z,12.16
2022-10-28T19:23:43.569Z,12.17
2022-10-28T19:26:11.228Z,12.04
2022-10-28T19:28:41.619Z,12.12
2022-10-28T19:31:11.182Z,12.13
2022-10-28T19:33:38.410Z,12.12
2022-10-28T19:36:11.697Z,12.09
2022-10-28T19:38:38.372Z,12.04
2022-10-28T19:41:15.869Z,11.98
2022-10-28T19:43:42.509Z,12.02
2022-10-28T19:46:16.950Z,12.00
2022-10-28T19:48:46.255Z,11.87
2022-10-28T19:51:15.889Z,11.86
2022-10-28T19:53:49.981Z,11.97
2022-10-28T19:56:19.106Z,11.96
2022-10-28T19:58:46.973Z,11.91
2022-10-28T20:01:14.276Z,11.93
2022-10-28T20:03:45.056Z,11.90
2022-10-28T20:06:14.868Z,11.90
2022-10-28T20:08:44.251Z,11.87
2022-10-28T20:11:12.752Z,11.83
2022-10-28T20:13:39.287Z,11.84
2022-10-28T20:16:11.269Z,11.83
2022-10-28T20:18:38.170Z,11.82
2022-10-28T20:21:24.572Z,11.82
2022-10-28T20:23:56.214Z,11.80
2022-10-28T20:26:33.678Z,11.72
2022-10-28T20:29:02.893Z,11.81
2022-10-28T20:31:30.727Z,11.79
2022-10-28T20:34:01.614Z,11.75
2022-10-28T20:36:38.921Z,11.69
2022-10-28T20:39:08.757Z,11.72
2022-10-28T20:41:37.074Z,11.70
2022-10-28T20:44:04.301Z,11.70
2022-10-28T20:46:31.183Z,11.54
2022-10-28T20:48:57.980Z,11.63
2022-10-28T20:51:25.452Z,11.62
2022-10-28T20:53:52.047Z,11.60
2022-10-28T20:56:33.413Z,11.38
2022-10-28T20:59:00.091Z,11.48
2022-10-28T21:01:28.570Z,11.35
2022-10-28T21:04:03.438Z,11.32
2022-10-28T21:06:30.306Z,11.44
2022-10-28T21:08:57.089Z,11.44
2022-10-28T21:11:23.973Z,11.38
2022-10-28T21:13:58.576Z,11.28
2022-10-28T21:16:25.812Z,11.36
2022-10-28T21:18:52.886Z,11.34
2022-10-28T21:21:20.012Z,11.18
2022-10-28T21:23:46.534Z,11.21
2022-10-28T21:26:13.478Z,11.26
2022-10-28T21:28:43.328Z,11.26
2022-10-28T21:31:12.041Z,11.27
2022-10-28T21:33:39.209Z,11.32
2022-10-28T21:36:11.187Z,11.23
2022-10-28T21:38:37.454Z,11.33
2022-10-28T21:41:06.373Z,11.25
2022-10-28T21:43:35.393Z,11.16
2022-10-28T21:46:01.783Z,11.32
2022-10-28T21:48:28.856Z,11.33
2022-10-28T21:50:56.954Z,11.30
2022-10-28T21:53:23.588Z,11.31
2022-10-28T21:55:51.358Z,11.31
2022-10-28T21:58:18.034Z,11.28
2022-10-28T22:00:44.630Z,11.28
2022-10-28T22:03:11.786Z,11.28
2022-10-28T22:05:38.245Z,11.26
2022-10-28T22:08:05.299Z,11.30
2022-10-28T22:10:32.088Z,11.31
2022-10-28T22:12:58.437Z,11.30
2022-10-28T22:15:24.728Z,11.30
2022-10-28T22:17:51.283Z,11.30
2022-10-28T22:20:17.573Z,11.29
2022-10-28T22:22:43.941Z,11.29
2022-10-28T22:25:10.785Z,11.29
2022-10-28T22:27:37.120Z,11.25
2022-10-28T22:30:03.718Z,11.29
2022-10-28T22:32:30.238Z,11.18
2022-10-28T22:34:56.473Z,11.27
2022-10-28T22:37:22.751Z,11.27
2022-10-28T22:39:49.263Z,11.29
2022-10-28T22:42:15.891Z,11.30
2022-10-28T22:44:42.166Z,11.29
2022-10-28T22:47:08.673Z,11.25
2022-10-28T22:49:34.900Z,11.32
2022-10-28T22:52:01.140Z,11.29
2022-10-28T22:54:27.659Z,11.29
2022-10-28T22:56:53.926Z,11.27
2022-10-28T22:59:20.176Z,11.14
2022-10-28T23:01:46.851Z,11.22
2022-10-28T23:04:13.217Z,11.23
2022-10-28T23:06:39.497Z,11.22
2022-10-28T23:09:06.191Z,11.18
2022-10-28T23:11:32.668Z,11.21
2022-10-28T23:13:58.935Z,11.20
2022-10-28T23:16:25.502Z,11.12
2022-10-28T23:18:53.187Z,11.12
2022-10-28T23:21:21.521Z,11.17
2022-10-28T23:23:51.352Z,11.15
2022-10-28T23:26:20.493Z,11.17
2022-10-28T23:28:50.622Z,11.16
2022-10-28T23:31:17.419Z,11.11
2022-10-28T23:33:43.651Z,11.10
2022-10-28T23:36:11.938Z,11.08
2022-10-28T23:38:38.502Z,11.08
2022-10-28T23:41:09.539Z,11.09
2022-10-28T23:43:35.840Z,11.09
2022-10-28T23:46:02.393Z,11.11
2022-10-28T23:48:28.972Z,11.13
2022-10-28T23:50:55.701Z,11.15
2022-10-28T23:53:23.353Z,11.15
2022-10-28T23:55:50.688Z,11.17
2022-10-28T23:58:18.115Z,11.17
